Kezdőlap
METAR-TAF:

METAR-TAF

Repülőterek :

Kókusz, Ausztrália

földrajzi szélesség: 12-11S, földrajzi hosszúság: 096-49E, magasság: 3 m

Jelenlegi meteorológiai megfigyelések

A jelentés 33 perccel ezelõtt készült, 02:30 UTC
Délkeleti szél 15 kt
Hőmérséklet 27°C
Páratartalom 70%
Légköri nyomás 1014 hPa
Látótávolság 10 km, vagy több
Kevés felhő 2500 lábon

METAR: YPCC 130230Z 14015KT 9999 FEW025 27/21 Q1014

Idő: 09:33 (03:03 UTC)

Előrejelzés

A jelentés 3 órával és 59 perccel ezelõtt készült, 23:04 UTC
Az előrejelzés 13-én 00 óra UTC és 14-én 00 óra UTC között érvényes
Délkeleti szél 15 kt
Látótávolság 10 km, vagy több
Szórványos felhőzet 2500 lábon

TAF: YPCC 122304Z 1300/1400 13015KT 9999 SCT025

Meteorológiai megfigyelések és előrejelzések több, mint 4000 repülőtéren (METAR és TAF jelentéseket).

A térképen piros és sárga pontok jelzik az elérhető meteorológiai állomásokat.

Mozgassa az egeret a pont fölött, hogy megjelenjen az állomás neve.

Azután kattintson az időjárási megfigyelések és előrejelzések megtekintéséhez.

A térkép megváltoztatása: kattintson a fekete keresztel jelölt zöld gombra ráközelítéshez, a vonallal jelölt zöld gombra távolításhoz, vagy a zöld nyilakra a szomszédos térképek eléréséhez.


METAR-TAF: